ADDS METAR Data INFO
IDs: Format: Raw Decoded Include TAF

Data at: 0213 UTC 17 Aug 2018

PAKH 170156Z AUTO VRB04KT 10SM FEW025 SCT075 13/08 A3005 RMK AO2 SLP176 T01330078 $
PAKH 170056Z AUTO 25008KT 10SM OVC075 13/09 A3004 RMK AO2 SLP175 T01330089 $
PAKH 162356Z AUTO 24005KT 10SM SCT016 BKN050 OVC065 13/08 A3004 RMK AO2 SLP173 T01280083 10133 20106 50003 $
PAKH 162349Z AUTO 22006KT 10SM BKN016 BKN037 BKN070 13/09 A3004 RMK AO2 $
PAKH 162324Z AUTO 24006KT 10SM SCT020 BKN038 13/09 A3004 RMK AO2 $
PAKH 162256Z AUTO 19010KT 10SM BKN020 BKN026 OVC031 13/09 A3004 RMK AO2 SLP174 T01330094 $
PAKH 162156Z AUTO 24008KT 10SM OVC017 13/09 A3004 RMK AO2 SLP172 T01280089 $
PAKH 162128Z AUTO 19010KT 10SM SCT017 BKN025 OVC060 13/09 A3003 RMK AO2 $
PAKH 162109Z AUTO 25007KT 10SM FEW019 SCT028 OVC060 12/09 A3003 RMK AO2 $
PAKH 162056Z AUTO 24006KT 10SM SCT018 BKN027 OVC060 12/09 A3003 RMK AO2 SLP170 T01220089 53003 $
PAKH 162038Z AUTO 25007KT 10SM SCT016 BKN025 OVC070 12/09 A3003 RMK AO2 $
PAKH 162003Z AUTO 19005KT 10SM SCT012 OVC065 13/09 A3003 RMK AO2 $
PAKH 161956Z AUTO 18006KT 10SM BKN014 OVC065 13/09 A3003 RMK AO2 SLP169 T01280094 $
PAKH 161934Z AUTO 20007KT 10SM BKN014 OVC065 12/09 A3003 RMK AO2 $
PAKH 161926Z AUTO 21004KT 10SM SCT012 SCT017 OVC065 12/09 A3003 RMK AO2 $
PAKH 161914Z AUTO 20006KT 10SM BKN012 BKN017 OVC065 12/09 A3002 RMK AO2 $
PAKH 161904Z AUTO 20005KT 10SM SCT012 BKN017 OVC065 12/09 A3002 RMK AO2 $
PAKH 161856Z AUTO VRB03KT 10SM SCT012 SCT018 OVC065 12/09 A3002 RMK AO2 SLP168 T01170094 $
PAKH 161756Z AUTO 23004KT 10SM OVC060 11/09 A3002 RMK AO2 SLP168 T01060089 10106 20083 51005 $
PAKH 161656Z AUTO 00000KT 10SM OVC055 09/09 A3002 RMK AO2 SLP167 T00940094 $
PAKH 161556Z AUTO 02003KT 10SM OVC055 09/08 A3001 RMK AO2 SLP164 T00890083 $
PAKH 161456Z AUTO 01003KT 10SM OVC055 08/08 A3001 RMK AO2 SLP163 T00830078 52002 $
PAKH 161356Z AUTO 00000KT 10SM FEW012 OVC055 09/09 A3001 RMK AO2 SLP162 T00940089 $
PAKH 161256Z AUTO 00000KT 10SM SCT017 OVC050 09/09 A3000 RMK AO2 SLP161 T00940089 $
PAKH 161156Z AUTO 00000KT 10SM BKN034 OVC050 09/09 A3000 RMK AO2 SLP161 60000 70008 T00940089 10106 20094 53000 $
PAKH 161056Z AUTO 00000KT 10SM SCT033 OVC046 10/09 A3000 RMK AO2 RAB31E54 SLP160 P0000 T01000094 $
PAKH 160956Z AUTO 00000KT 10SM FEW011 SCT025 OVC046 10/09 A3000 RMK AO2 SLP160 T01000094 $
PAKH 160953Z AUTO 00000KT 10SM FEW011 SCT018 OVC046 10/09 A3000 RMK AO2 $
PAKH 160939Z AUTO 23003KT 10SM SCT011 BKN019 OVC044 10/09 A3000 RMK AO2 $
PAKH 160915Z AUTO 00000KT 10SM BKN009 OVC016 10/09 A3000 RMK AO2 CIG 007V012 $
PAKH 160906Z AUTO 00000KT 10SM SCT009 BKN016 OVC050 10/09 A3000 RMK AO2 $
PAKH 160856Z AUTO 00000KT 10SM FEW011 BKN017 OVC050 10/09 A3000 RMK AO2 SLP159 60000 T01000089 401280100 53005 $
PAKH 160846Z AUTO 00000KT 10SM FEW011 BKN030 OVC050 10/09 A3000 RMK AO2 $
PAKH 160818Z AUTO 25003KT 10SM BKN016 OVC022 10/09 A3000 RMK AO2 $
PAKH 160756Z AUTO 25004KT 10SM BKN014 BKN021 OVC039 10/09 A2999 RMK AO2 SLP158 T01000089 $
PAKH 160742Z AUTO 25005KT 10SM BKN014 BKN021 OVC044 10/09 A2999 RMK AO2 $
PAKH 160656Z AUTO 29008KT 10SM BKN043 OVC050 10/09 A2998 RMK AO2 RAE06 SLP155 P0000 T01000089 $
PAKH 160635Z AUTO 27008KT 10SM FEW009 BKN041 OVC050 10/09 A2999 RMK AO2 RAE06 P0000 $
PAKH 160624Z AUTO 26006KT 10SM SCT011 BKN027 OVC045 10/09 A2998 RMK AO2 RAE06 P0000 $
PAKH 160608Z AUTO 27004KT 10SM BKN011 OVC017 10/09 A2998 RMK AO2 RAE06 P0000 $
PAKH 160556Z AUTO 00000KT 10SM -RA BKN015 OVC019 10/09 A2998 RMK AO2 RAB43 SLP154 P0000 60003 T01000089 10117 20100 53003 $
PAKH 160508Z AUTO 00000KT 10SM BKN013 OVC085 10/09 A2998 RMK AO2 $
PAKH 160456Z AUTO 00000KT 10SM FEW013 BKN085 10/09 A2997 RMK AO2 SLP151 T01000089 $
PAKH 160356Z AUTO 03003KT 10SM FEW070 11/09 A2997 RMK AO2 RAB01E48 SLP151 P0000 T01110094 $
PAKH 160256Z AUTO 03005KT 10SM BKN035 OVC060 11/10 A2997 RMK AO2 RAE43 SLP151 P0001 60003 T01110100 57001 $
PAKH 160156Z AUTO 05004KT 10SM -RA OVC050 11/09 A2997 RMK AO2 SLP152 P0002 T01110094 $
PAKH 160056Z AUTO 04006KT 10SM -RA OVC044 11/08 A2997 RMK AO2 RAB12 SLP152 P0000 T01110083 $
PAKH 160012Z AUTO 28008KT 10SM -RA SCT024 SCT035 OVC044 11/09 A2998 RMK AO2 RAB12 P0000 $
PAKH 152356Z AUTO 30008KT 10SM BKN024 OVC030 11/08 A2998 RMK AO2 RAB2258E27 SLP152 P0000 60005 T01110083 10128 20111 50000 $
PAKH 152256Z AUTO 30006KT 10SM SCT016 BKN021 OVC039 12/09 A2998 RMK AO2 RAE33 SLP154 P0001 T01170094 $
PAKH 152245Z AUTO 29004KT 10SM FEW012 BKN022 OVC049 12/09 A2998 RMK AO2 RAE33 P0001 $
PAKH 152156Z AUTO 25006KT 10SM -RA FEW018 SCT043 OVC049 12/10 A2998 RMK AO2 RAB22 SLP155 P0000 T01170100 $
PAKH 152056Z AUTO 26007KT 10SM OVC047 12/09 A2998 RMK AO2 RAE05 SLP152 P0001 60004 T01170094 58004 $
PAKH 151956Z AUTO 27006KT 4SM -RA BR 11/10 A2998 RMK AO2 RAB19 SLP155 P0003 T01110100 $
PAKH 151926Z AUTO 24006KT 8SM -RA 11/10 A2999 RMK AO2 RAB19 P0000 $
PAKH 151905Z AUTO 23008KT 10SM BKN016 OVC035 12/10 A2999 RMK AO2 $
PAKH 151856Z AUTO 24005KT 10SM BKN014 BKN021 OVC035 12/09 A2999 RMK AO2 SLP155 T01220094 $
PAKH 151847Z AUTO VRB03KT 10SM FEW016 SCT021 BKN035 12/09 A2999 RMK AO2 $
PAKH 151840Z AUTO 22003KT 10SM SCT023 BKN027 BKN035 12/10 A2999 RMK AO2 $
PAKH 151756Z AUTO 26004KT 10SM SCT015 OVC060 11/10 A2999 RMK AO2 SLP156 T01110100 10111 20100 58000 $
PAKH 151715Z AUTO 26004KT 10SM BKN023 BKN030 OVC060 11/10 A2999 RMK AO2 $
PAKH 151656Z AUTO 23005KT 10SM BKN030 OVC055 11/10 A2999 RMK AO2 SLP157 T01110100 $
PAKH 151556Z AUTO 22003KT 10SM 11/09 A2999 RMK AO2 SLP156 T01060094 $
PAKH 151456Z AUTO 28004KT 10SM SCT027 OVC055 11/09 A2999 RMK AO2 SLP156 T01060094 57008 $